Time;durP1;ratioP1;P1;durP2;ratioP2;P2;SDS_P1;SDS_P2;PMS_P1;PMS_P2;Temp;Humidity;BMP_temperature;BMP_pressure;BME280_temperature;BME280_humidity;BME280_pressure;Samples;Min_cycle;Max_cycle;Signal;HPM_P1;HPM_P2
2024/01/14 00:00:11;;;;;;;23.50;12.32;;;;;;;-3.67;62.78;99466.16;4905865;29;20509;-94
2024/01/14 00:02:38;;;;;;;21.08;10.98;;;;;;;-3.72;62.80;99461.38;4920982;29;20027;-93
2024/01/14 00:05:08;;;;;;;20.13;10.30;;;;;;;-3.67;62.63;99471.41;4906248;29;20059;-95
2024/01/14 00:07:33;;;;;;;22.52;10.95;;;;;;;-3.67;63.07;99477.50;4921283;29;20028;-94
2024/01/14 00:09:59;;;;;;;19.65;9.50;;;;;;;-3.95;63.01;99460.53;4922047;29;20031;-95
2024/01/14 00:12:28;;;;;;;21.55;9.20;;;;;;;-4.01;63.49;99461.22;4906199;29;20047;-95
2024/01/14 00:14:53;;;;;;;26.00;9.80;;;;;;;-4.10;64.42;99463.09;4937601;29;20115;-94
2024/01/14 00:17:19;;;;;;;16.67;8.55;;;;;;;-3.93;63.98;99488.31;4921838;29;20062;-95
2024/01/14 00:19:44;;;;;;;17.30;9.32;;;;;;;-3.96;63.66;99457.09;4922113;29;20490;-95
2024/01/14 00:22:10;;;;;;;21.58;11.45;;;;;;;-4.07;64.18;99452.22;4920788;29;20471;-94
2024/01/14 00:24:36;;;;;;;18.27;10.27;;;;;;;-3.99;63.75;99461.88;4937683;29;20483;-95
2024/01/14 00:27:01;;;;;;;20.88;9.27;;;;;;;-4.01;63.70;99458.59;4920751;29;20087;-93
2024/01/14 00:29:27;;;;;;;19.98;10.05;;;;;;;-3.84;63.87;99472.47;4905594;29;20032;-94
2024/01/14 00:31:52;;;;;;;18.88;9.88;;;;;;;-3.77;63.63;99471.63;4921432;29;20038;-94
2024/01/14 00:34:18;;;;;;;24.27;10.52;;;;;;;-4.11;64.22;99429.88;4905389;29;20083;-94
2024/01/14 00:36:43;;;;;;;20.95;10.32;;;;;;;-4.31;64.91;99445.28;4924255;29;20402;-95
2024/01/14 00:39:10;;;;;;;22.00;10.63;;;;;;;-4.38;65.27;99447.75;4926193;29;20031;-94
2024/01/14 00:41:35;;;;;;;22.23;11.65;;;;;;;-4.57;65.50;99430.56;4909678;29;20031;-94
2024/01/14 00:44:02;;;;;;;24.85;12.32;;;;;;;-4.63;65.80;99435.66;4925635;29;20034;-95
2024/01/14 00:46:27;;;;;;;25.15;11.65;;;;;;;-4.86;66.65;99428.50;4925520;29;20098;-94
2024/01/14 00:48:53;;;;;;;22.30;11.50;;;;;;;-4.79;66.67;99436.53;4925880;29;20063;-93
2024/01/14 00:51:18;;;;;;;23.10;11.90;;;;;;;-4.75;67.35;99443.09;4909179;29;20031;-94
2024/01/14 00:53:44;;;;;;;21.05;12.10;;;;;;;-4.83;66.75;99409.81;4924693;29;20478;-94
2024/01/14 00:56:11;;;;;;;21.80;12.23;;;;;;;-4.85;67.02;99406.53;4909734;29;20030;-93
2024/01/14 00:58:37;;;;;;;22.75;12.98;;;;;;;-4.68;66.33;99421.25;4925372;29;20083;-93
2024/01/14 01:01:03;;;;;;;25.10;13.50;;;;;;;-4.76;66.57;99404.69;4924633;29;20027;-94
2024/01/14 01:03:28;;;;;;;23.80;12.15;;;;;;;-4.79;67.49;99405.00;4925369;29;20051;-95
2024/01/14 01:05:54;;;;;;;23.75;12.63;;;;;;;-4.79;67.41;99411.09;4924550;29;20138;-94
2024/01/14 01:08:19;;;;;;;21.48;11.10;;;;;;;-4.99;66.80;99381.75;4925039;29;20028;-93
2024/01/14 01:10:45;;;;;;;22.13;12.07;;;;;;;-4.63;66.83;99412.84;4925178;29;20027;-94
2024/01/14 01:13:10;;;;;;;25.95;11.38;;;;;;;-4.93;67.25;99390.78;4925165;29;20051;-94
2024/01/14 01:15:36;;;;;;;19.80;11.48;;;;;;;-5.00;67.23;99387.16;4925526;29;20039;-94
2024/01/14 01:18:02;;;;;;;22.20;12.00;;;;;;;-5.01;67.00;99389.00;4924614;29;20043;-94
2024/01/14 01:20:27;;;;;;;22.60;11.48;;;;;;;-5.10;67.26;99393.44;4940776;29;20027;-94
2024/01/14 01:22:53;;;;;;;17.83;10.13;;;;;;;-5.16;67.64;99383.59;4909884;29;20498;-93
2024/01/14 01:25:19;;;;;;;20.38;11.55;;;;;;;-5.30;67.41;99371.97;4924300;29;20597;-94
2024/01/14 01:27:44;;;;;;;22.60;11.30;;;;;;;-5.28;68.19;99388.38;4908593;29;20019;-94
2024/01/14 01:30:10;;;;;;;21.48;11.02;;;;;;;-5.33;67.30;99366.25;4923878;29;20028;-94
2024/01/14 01:32:36;;;;;;;26.45;11.63;;;;;;;-5.35;68.20;99366.41;4923307;29;20027;-94
2024/01/14 01:35:01;;;;;;;18.33;10.55;;;;;;;-5.15;68.68;99385.22;4924026;29;20474;-95
2024/01/14 01:37:27;;;;;;;19.08;10.95;;;;;;;-5.39;68.51;99352.00;4923489;29;20028;-94
2024/01/14 01:39:52;;;;;;;28.38;12.43;;;;;;;-5.39;67.62;99338.88;4924426;29;20406;-94
2024/01/14 01:42:18;;;;;;;23.48;10.95;;;;;;;-5.39;68.31;99359.06;4924798;29;20039;-94
2024/01/14 01:44:44;;;;;;;19.05;10.57;;;;;;;-5.43;68.17;99337.56;4908781;29;20023;-94
2024/01/14 01:47:09;;;;;;;18.83;10.70;;;;;;;-5.28;67.76;99337.69;4909082;29;20091;-94
2024/01/14 01:49:35;;;;;;;22.02;10.30;;;;;;;-5.28;68.10;99337.69;4908015;29;20036;-94
2024/01/14 01:52:00;;;;;;;22.02;11.02;;;;;;;-5.41;68.26;99322.47;4924683;29;20409;-95
2024/01/14 01:54:27;;;;;;;25.75;11.65;;;;;;;-5.34;68.42;99335.75;4923839;29;20027;-94
2024/01/14 01:56:53;;;;;;;26.70;11.45;;;;;;;-5.43;68.69;99340.19;4922715;29;20023;-94
2024/01/14 01:59:19;;;;;;;19.95;10.52;;;;;;;-5.61;68.60;99313.31;4924088;29;20109;-94
2024/01/14 02:01:44;;;;;;;20.45;11.18;;;;;;;-5.43;68.73;99328.88;4907819;29;20071;-94
2024/01/14 02:04:10;;;;;;;15.82;9.73;;;;;;;-5.64;68.38;99313.63;4922630;29;20023;-95
2024/01/14 02:06:36;;;;;;;24.17;11.02;;;;;;;-5.61;68.28;99302.81;4924371;29;20047;-95
2024/01/14 02:09:02;;;;;;;19.17;10.50;;;;;;;-5.63;68.31;99291.69;4923197;29;20027;-94
2024/01/14 02:11:30;;;;;;;18.37;10.53;;;;;;;-5.54;68.13;99295.91;4909609;29;20051;-93
2024/01/14 02:13:55;;;;;;;20.45;10.38;;;;;;;-5.43;68.03;99300.03;4923768;29;20036;-94
2024/01/14 02:16:21;;;;;;;24.95;11.82;;;;;;;-5.53;68.42;99297.56;4924663;29;20020;-95
2024/01/14 02:18:46;;;;;;;20.15;11.23;;;;;;;-5.41;67.53;99309.34;4923698;29;20414;-94
2024/01/14 02:21:14;;;;;;;22.73;10.33;;;;;;;-5.52;68.15;99294.78;4907652;29;20094;-94
2024/01/14 02:23:41;;;;;;;29.63;9.95;;;;;;;-5.79;68.41;99290.72;4923572;29;20513;-94
2024/01/14 02:26:07;;;;;;;22.70;11.55;;;;;;;-5.74;68.53;99304.16;4920472;29;20052;-93
2024/01/14 02:28:33;;;;;;;17.57;10.60;;;;;;;-5.77;67.77;99301.03;4904427;29;20128;-93
2024/01/14 02:30:59;;;;;;;19.30;10.93;;;;;;;-5.82;67.61;99272.69;4920681;29;20032;-95
2024/01/14 02:33:24;;;;;;;20.67;10.15;;;;;;;-5.73;68.49;99290.06;4919952;29;20537;-94
2024/01/14 02:35:50;;;;;;;18.60;9.07;;;;;;;-5.97;68.54;99262.09;4904068;29;20118;-95
2024/01/14 02:38:16;;;;;;;20.88;10.68;;;;;;;-5.85;68.62;99277.44;4904377;29;20027;-94
2024/01/14 02:40:41;;;;;;;19.40;10.20;;;;;;;-5.86;68.23;99270.56;4904726;29;20063;-94
2024/01/14 02:43:07;;;;;;;22.45;9.93;;;;;;;-5.92;68.43;99258.94;4921245;29;20035;-94
2024/01/14 02:45:35;;;;;;;15.57;9.13;;;;;;;-5.91;68.44;99269.25;4905082;29;20012;-94
2024/01/14 02:48:01;;;;;;;20.97;12.47;;;;;;;-6.05;69.10;99253.41;4903188;29;20060;-94
2024/01/14 02:50:26;;;;;;;23.17;10.87;;;;;;;-6.01;68.86;99250.28;4920315;29;20097;-94
2024/01/14 02:52:52;;;;;;;21.95;10.25;;;;;;;-5.98;68.93;99252.56;4902922;29;20032;-94
2024/01/14 02:55:18;;;;;;;22.75;11.65;;;;;;;-5.97;68.72;99248.97;4919115;29;20043;-93
2024/01/14 02:57:43;;;;;;;19.73;10.30;;;;;;;-6.02;68.79;99255.69;4919317;29;20028;-94
2024/01/14 03:00:10;;;;;;;19.17;10.57;;;;;;;-6.00;69.14;99232.75;4918060;29;20076;-93
2024/01/14 03:02:36;;;;;;;19.83;11.07;;;;;;;-6.01;68.86;99229.31;4919329;29;20024;-93
2024/01/14 03:05:02;;;;;;;19.63;10.77;;;;;;;-6.10;69.42;99225.06;4903496;29;20091;-93
2024/01/14 03:07:28;;;;;;;25.43;12.33;;;;;;;-6.06;69.38;99221.13;4918525;29;20028;-94
2024/01/14 03:09:53;;;;;;;17.70;10.57;;;;;;;-5.85;68.60;99245.97;4918966;29;20099;-94
2024/01/14 03:12:19;;;;;;;24.67;11.33;;;;;;;-5.87;68.44;99233.06;4919628;29;20027;-94
2024/01/14 03:14:44;;;;;;;26.67;12.03;;;;;;;-5.98;68.96;99208.00;4903083;29;20032;-94
2024/01/14 03:17:10;;;;;;;22.90;12.50;;;;;;;-5.81;68.56;99239.41;4904535;29;20024;-93
2024/01/14 03:19:36;;;;;;;22.03;12.00;;;;;;;-5.97;68.60;99222.75;4902452;29;20071;-94
2024/01/14 03:22:01;;;;;;;21.97;11.77;;;;;;;-5.88;68.59;99207.81;4919074;29;20557;-94
2024/01/14 03:24:27;;;;;;;25.23;12.52;;;;;;;-6.08;68.78;99193.44;4903569;29;20032;-95
2024/01/14 03:26:53;;;;;;;27.00;11.77;;;;;;;-6.15;68.35;99207.22;4917910;29;20048;-95
2024/01/14 03:29:18;;;;;;;18.50;10.97;;;;;;;-6.06;68.60;99212.44;4903981;29;20042;-93
2024/01/14 03:31:44;;;;;;;19.47;11.67;;;;;;;-6.23;68.16;99206.41;4902627;29;20032;-93
2024/01/14 03:34:09;;;;;;;21.53;10.00;;;;;;;-6.16;67.46;99189.88;4904069;29;20028;-94
2024/01/14 03:36:35;;;;;;;22.60;11.60;;;;;;;-6.33;68.05;99189.06;4918832;29;20024;-93
2024/01/14 03:39:02;;;;;;;21.03;9.97;;;;;;;-6.18;68.46;99199.69;4918477;29;20028;-95
2024/01/14 03:41:28;;;;;;;21.37;9.67;;;;;;;-6.21;68.49;99210.47;4903227;29;20095;-94
2024/01/14 03:43:53;;;;;;;24.08;11.50;;;;;;;-6.32;68.71;99182.81;4904829;29;20024;-93
2024/01/14 03:46:19;;;;;;;18.37;10.10;;;;;;;-6.08;68.40;99204.75;4919493;29;20059;-94
2024/01/14 03:48:44;;;;;;;20.60;10.63;;;;;;;-6.12;68.01;99185.09;4918987;29;20558;-94
2024/01/14 03:51:10;;;;;;;18.53;10.10;;;;;;;-6.12;67.56;99180.69;4918684;29;20032;-94
2024/01/14 03:53:35;;;;;;;18.73;9.97;;;;;;;-5.92;67.13;99203.88;4903125;29;20032;-95
2024/01/14 03:56:01;;;;;;;26.20;10.17;;;;;;;-6.21;67.96;99173.00;4903408;29;20091;-94
2024/01/14 03:58:26;;;;;;;21.43;11.53;;;;;;;-6.13;67.97;99175.59;4917683;29;20020;-95
2024/01/14 04:00:52;;;;;;;19.67;10.90;;;;;;;-6.38;68.08;99162.53;4903050;29;20053;-93
2024/01/14 04:03:17;;;;;;;19.50;10.67;;;;;;;-6.35;67.97;99162.22;4901939;29;20035;-94
2024/01/14 04:05:43;;;;;;;15.77;9.80;;;;;;;-6.22;67.85;99172.19;4903659;29;20119;-93
2024/01/14 04:08:08;;;;;;;19.30;10.40;;;;;;;-6.39;68.47;99170.53;4934738;29;20059;-94
2024/01/14 04:10:34;;;;;;;24.60;10.23;;;;;;;-6.27;67.68;99174.47;4917943;29;20050;-94
2024/01/14 04:13:00;;;;;;;21.57;11.20;;;;;;;-6.16;68.18;99179.38;4919407;29;20020;-92
2024/01/14 04:15:26;;;;;;;25.50;11.10;;;;;;;-6.12;68.08;99204.28;4919716;29;20091;-94
2024/01/14 04:17:51;;;;;;;24.40;11.00;;;;;;;-6.15;67.79;99211.63;4918534;29;20513;-94
2024/01/14 04:20:17;;;;;;;24.60;10.10;;;;;;;-6.23;68.16;99199.34;4902723;29;20024;-95
2024/01/14 04:22:42;;;;;;;20.90;10.73;;;;;;;-6.32;67.92;99180.19;4903083;29;20028;-94
2024/01/14 04:25:08;;;;;;;24.43;10.67;;;;;;;-6.35;68.00;99185.78;4920927;29;20024;-93
2024/01/14 04:27:34;;;;;;;20.90;10.87;;;;;;;-6.42;67.76;99169.06;4906009;29;20067;-95
2024/01/14 04:30:00;;;;;;;21.03;9.87;;;;;;;-6.42;68.29;99205.75;4919725;29;20024;-93
2024/01/14 04:32:26;;;;;;;22.40;12.10;;;;;;;-6.48;68.22;99197.72;4905755;29;20079;-94
2024/01/14 04:34:51;;;;;;;24.03;12.10;;;;;;;-6.56;67.72;99207.19;4904612;29;20118;-93
2024/01/14 04:37:17;;;;;;;21.37;11.33;;;;;;;-6.44;67.37;99193.78;4905853;29;20078;-94
2024/01/14 04:39:42;;;;;;;23.37;11.07;;;;;;;-6.44;67.16;99212.13;4921079;29;20020;-94
2024/01/14 04:42:08;;;;;;;24.17;11.13;;;;;;;-6.60;67.62;99205.06;4921187;29;20024;-93
2024/01/14 04:44:34;;;;;;;23.43;11.93;;;;;;;-6.60;67.95;99219.00;4906288;29;20028;-93
2024/01/14 04:46:59;;;;;;;17.73;10.47;;;;;;;-6.65;68.23;99213.41;4921244;29;20098;-93
2024/01/14 04:49:25;;;;;;;22.13;12.00;;;;;;;-6.64;67.78;99206.38;4920601;29;20059;-94
2024/01/14 04:51:50;;;;;;;24.23;12.23;;;;;;;-6.50;66.87;99222.25;4937345;29;20509;-95
2024/01/14 04:54:16;;;;;;;21.17;11.00;;;;;;;-6.77;67.51;99193.75;4920522;29;20035;-94
2024/01/14 04:56:41;;;;;;;24.70;11.73;;;;;;;-6.76;67.72;99206.69;4905461;29;20031;-93
2024/01/14 04:59:07;;;;;;;22.03;12.60;;;;;;;-6.59;67.49;99210.16;4920101;29;20020;-95
2024/01/14 05:01:33;;;;;;;23.43;13.93;;;;;;;-6.66;66.44;99174.28;4904474;29;20019;-94
2024/01/14 05:03:58;;;;;;;20.40;11.70;;;;;;;-6.76;66.64;99179.72;4921051;29;20028;-94
2024/01/14 05:06:24;;;;;;;31.83;14.47;;;;;;;-6.94;67.59;99175.41;4920519;29;20102;-94
2024/01/14 05:08:50;;;;;;;24.00;11.37;;;;;;;-6.97;67.59;99174.91;4905722;29;20063;-93
2024/01/14 05:11:16;;;;;;;27.00;12.20;;;;;;;-7.00;68.29;99176.03;4921918;29;20031;-94
2024/01/14 05:13:41;;;;;;;21.40;11.70;;;;;;;-6.94;67.33;99169.38;4920740;29;20032;-93
2024/01/14 05:16:07;;;;;;;27.07;12.50;;;;;;;-6.99;67.80;99169.00;4921089;29;20034;-93
2024/01/14 05:18:32;;;;;;;22.43;11.83;;;;;;;-6.97;68.10;99169.66;4921226;29;20072;-93
2024/01/14 05:20:58;;;;;;;22.97;11.20;;;;;;;-6.99;68.00;99177.69;4904820;29;20028;-94
2024/01/14 05:23:23;;;;;;;26.37;12.93;;;;;;;-6.88;68.34;99179.19;4908028;29;20030;-94
2024/01/14 05:25:49;;;;;;;25.30;12.83;;;;;;;-6.88;68.20;99170.53;4920694;29;20052;-93
2024/01/14 05:28:14;;;;;;;30.17;14.50;;;;;;;-6.88;67.94;99176.56;4920997;29;20051;-95
2024/01/14 05:30:40;;;;;;;28.90;16.50;;;;;;;-6.66;67.79;99206.56;4920868;29;20497;-94
2024/01/14 05:33:06;;;;;;;29.57;15.57;;;;;;;-6.81;68.25;99182.78;4921467;29;20032;-93
2024/01/14 05:35:31;;;;;;;26.33;14.07;;;;;;;-6.65;67.93;99202.94;4921364;29;20090;-93
2024/01/14 05:37:57;;;;;;;34.33;16.07;;;;;;;-6.75;67.78;99186.56;4921102;29;20500;-93
2024/01/14 05:40:23;;;;;;;30.60;15.67;;;;;;;-6.93;67.72;99184.91;4920811;29;20035;-94
2024/01/14 05:42:48;;;;;;;30.60;16.03;;;;;;;-6.93;67.46;99179.69;4921848;29;20094;-93
2024/01/14 05:45:14;;;;;;;32.77;15.40;;;;;;;-6.83;67.49;99197.03;4920648;29;20035;-93
2024/01/14 05:47:39;;;;;;;39.00;16.57;;;;;;;-7.01;68.02;99171.00;4921383;29;20028;-94
2024/01/14 05:50:06;;;;;;;34.43;15.60;;;;;;;-6.91;67.79;99184.72;4921742;29;20036;-94
2024/01/14 05:52:32;;;;;;;29.73;15.63;;;;;;;-6.96;68.07;99181.78;4920692;29;20035;-94
2024/01/14 05:54:57;;;;;;;33.27;16.13;;;;;;;-7.01;68.31;99174.41;4905144;29;20020;-94
2024/01/14 05:57:23;;;;;;;33.87;15.17;;;;;;;-6.94;68.41;99187.69;4920614;29;20025;-94
2024/01/14 05:59:49;;;;;;;28.33;14.80;;;;;;;-7.01;67.43;99189.31;4920585;29;20031;-95
2024/01/14 06:02:15;;;;;;;51.00;19.40;;;;;;;-7.15;68.06;99175.84;4921074;29;20035;-94
2024/01/14 06:04:42;;;;;;;34.77;17.80;;;;;;;-7.11;68.43;99186.81;4920303;29;20032;-94
2024/01/14 06:07:09;;;;;;;39.27;19.87;;;;;;;-7.05;68.15;99183.56;4920838;29;20172;-93
2024/01/14 06:09:35;;;;;;;32.43;18.30;;;;;;;-7.06;67.99;99165.41;4921018;29;20028;-94
2024/01/14 06:12:01;;;;;;;34.27;18.37;;;;;;;-6.90;68.02;99170.69;4908396;29;20486;-96
2024/01/14 06:14:26;;;;;;;37.47;18.03;;;;;;;-6.83;67.27;99171.66;4921258;29;20048;-95
2024/01/14 06:16:52;;;;;;;31.87;17.33;;;;;;;-6.78;67.37;99166.78;4921947;29;20032;-94
2024/01/14 06:19:18;;;;;;;42.87;19.73;;;;;;;-6.76;67.46;99175.28;4921170;29;20016;-93
2024/01/14 06:21:43;;;;;;;43.37;20.57;;;;;;;-6.77;68.18;99172.81;4904399;29;20119;-94
2024/01/14 06:24:09;;;;;;;43.83;20.40;;;;;;;-6.69;67.74;99179.88;4919670;29;20028;-94
2024/01/14 06:26:35;;;;;;;44.63;18.57;;;;;;;-6.55;68.32;99179.22;4903754;29;20075;-93
2024/01/14 06:29:01;;;;;;;38.63;20.83;;;;;;;-6.48;67.96;99176.78;4919506;29;20414;-93
2024/01/14 06:31:26;;;;;;;46.53;19.70;;;;;;;-6.51;67.21;99155.16;4920691;29;20482;-94
2024/01/14 06:33:52;;;;;;;46.20;20.80;;;;;;;-6.34;67.40;99163.84;4920272;29;20028;-93
2024/01/14 06:36:20;;;;;;;32.77;19.50;;;;;;;-6.22;66.85;99159.09;4903895;29;20028;-93
2024/01/14 06:38:46;;;;;;;36.90;17.90;;;;;;;-6.27;67.49;99144.84;4920771;29;20525;-93
2024/01/14 06:41:26;;;;;;;37.30;16.63;;;;;;;-6.00;67.54;99180.34;4920806;29;20028;-93
2024/01/14 06:43:55;;;;;;;37.80;18.20;;;;;;;-5.93;67.79;99183.91;4905167;29;20024;-94
2024/01/14 06:46:20;;;;;;;33.47;17.13;;;;;;;-5.89;67.19;99162.44;4921193;29;20039;-94
2024/01/14 06:48:46;;;;;;;34.87;17.63;;;;;;;-6.04;67.61;99151.00;4905115;29;20036;-93
2024/01/14 06:51:11;;;;;;;34.50;18.37;;;;;;;-6.00;66.87;99144.44;4920353;29;20039;-93
2024/01/14 06:53:37;;;;;;;32.07;16.70;;;;;;;-5.90;66.42;99134.56;4919917;29;20020;-92
2024/01/14 06:56:03;;;;;;;31.33;15.75;;;;;;;-5.76;67.62;99145.34;4918911;29;20028;-94
2024/01/14 06:58:29;;;;;;;33.13;16.53;;;;;;;-5.63;66.66;99150.88;4903502;29;20024;-92
2024/01/14 07:00:54;;;;;;;29.83;16.67;;;;;;;-5.54;66.25;99141.16;4919449;29;20023;-94
2024/01/14 07:03:20;;;;;;;37.77;17.73;;;;;;;-5.45;66.41;99148.03;4918984;29;20035;-94
2024/01/14 07:05:45;;;;;;;40.35;19.42;;;;;;;-5.33;66.08;99169.47;4904125;29;20060;-92
2024/01/14 07:08:11;;;;;;;50.60;23.30;;;;;;;-5.39;65.88;99151.78;4919135;29;20031;-93
2024/01/14 07:10:37;;;;;;;45.90;20.20;;;;;;;-5.37;65.92;99147.19;4919549;29;20091;-94
2024/01/14 07:13:03;;;;;;;34.83;16.63;;;;;;;-5.25;65.87;99158.94;4919956;29;20024;-92
2024/01/14 07:15:28;;;;;;;40.45;19.55;;;;;;;-5.24;65.34;99147.44;4903425;29;20023;-93
2024/01/14 07:17:54;;;;;;;37.15;17.77;;;;;;;-5.14;64.90;99142.78;4919917;29;20115;-93
2024/01/14 07:20:19;;;;;;;43.03;20.33;;;;;;;-5.13;65.30;99141.78;4919484;29;20490;-94
2024/01/14 07:22:45;;;;;;;33.75;16.90;;;;;;;-5.15;65.06;99133.25;4919214;29;20024;-94
2024/01/14 07:25:11;;;;;;;34.10;16.75;;;;;;;-5.12;65.18;99126.88;4921528;29;20039;-93
2024/01/14 07:27:37;;;;;;;24.83;15.32;;;;;;;-5.02;64.84;99122.22;4905928;29;20496;-95
2024/01/14 07:30:03;;;;;;;34.38;16.67;;;;;;;-4.80;65.17;99141.56;4922231;29;20406;-94
2024/01/14 07:32:30;;;;;;;34.40;16.33;;;;;;;-4.83;64.71;99109.63;4907095;29;20051;-94
2024/01/14 07:34:56;;;;;;;29.38;15.23;;;;;;;-4.63;64.77;99131.75;4922413;29;20046;-94
2024/01/14 07:37:21;;;;;;;33.67;16.35;;;;;;;-4.58;64.46;99126.81;4922023;29;20569;-94
2024/01/14 07:39:47;;;;;;;41.10;18.13;;;;;;;-4.53;64.75;99113.94;4922371;29;20027;-91
2024/01/14 07:42:13;;;;;;;34.63;17.20;;;;;;;-4.26;64.05;99144.09;4906224;29;20166;-94
2024/01/14 07:44:38;;;;;;;35.67;17.27;;;;;;;-4.30;63.99;99102.59;4906197;29;20023;-94
2024/01/14 07:47:04;;;;;;;36.13;18.17;;;;;;;-4.04;63.64;99125.03;4906681;29;20035;-94
2024/01/14 07:49:29;;;;;;;26.73;15.43;;;;;;;-3.95;63.21;99113.41;4906015;29;20127;-94
2024/01/14 07:51:55;;;;;;;30.17;15.30;;;;;;;-3.75;63.17;99116.31;4905909;29;20501;-94
2024/01/14 07:54:21;;;;;;;30.90;13.63;;;;;;;-3.48;62.62;99135.91;4921050;29;20406;-94
2024/01/14 07:56:46;;;;;;;27.85;12.70;;;;;;;-3.40;61.14;99103.38;4921305;29;20036;-94
2024/01/14 07:59:12;;;;;;;26.85;13.98;;;;;;;-3.23;61.00;99104.00;4921014;29;20027;-94
2024/01/14 08:01:38;;;;;;;36.95;16.45;;;;;;;-3.33;61.47;99080.59;4921078;29;20038;-93
2024/01/14 08:04:03;;;;;;;30.95;16.63;;;;;;;-3.17;61.49;99090.91;4921425;29;20150;-94
2024/01/14 08:06:29;;;;;;;27.33;14.40;;;;;;;-3.12;60.85;99090.31;4921280;29;20027;-94
2024/01/14 08:08:55;;;;;;;27.55;13.23;;;;;;;-3.03;60.76;99093.66;4906330;29;20386;-94
2024/01/14 08:11:21;;;;;;;26.75;14.55;;;;;;;-2.85;60.84;99107.22;4921614;29;20479;-94
2024/01/14 08:13:47;;;;;;;27.20;14.50;;;;;;;-2.73;60.40;99107.53;4906621;29;20035;-94
2024/01/14 08:16:13;;;;;;;25.98;14.15;;;;;;;-2.57;60.22;99106.44;4921689;29;20027;-94
2024/01/14 08:18:39;;;;;;;26.73;14.05;;;;;;;-2.41;59.54;99108.00;4920764;29;20032;-94
2024/01/14 08:21:09;;;;;;;25.33;14.32;;;;;;;-2.23;58.96;99103.06;4921676;29;20027;-94
2024/01/14 08:23:35;;;;;;;22.63;11.63;;;;;;;-2.24;58.64;99075.06;4906474;29;20028;-94
2024/01/14 08:26:01;;;;;;;19.63;10.80;;;;;;;-2.07;58.09;99084.31;4920617;29;20429;-95
2024/01/14 08:28:27;;;;;;;20.20;11.23;;;;;;;-1.87;58.15;99100.25;4905647;29;20417;-93
2024/01/14 08:30:52;;;;;;;23.83;10.52;;;;;;;-1.80;57.38;99096.84;4920826;29;20043;-94
2024/01/14 08:33:18;;;;;;;22.70;11.82;;;;;;;-1.62;58.11;99112.94;4920904;29;20024;-94
2024/01/14 08:35:44;;;;;;;26.23;11.88;;;;;;;-1.45;57.19;99095.78;4921856;29;20038;-94
2024/01/14 08:38:10;;;;;;;18.52;10.23;;;;;;;-1.38;56.31;99079.97;4905629;29;20028;-93
2024/01/14 08:40:36;;;;;;;21.52;10.57;;;;;;;-1.14;55.64;99075.97;4921712;29;20067;-93
2024/01/14 08:43:01;;;;;;;20.83;10.77;;;;;;;-0.96;55.16;99077.22;4921230;29;20031;-94
2024/01/14 08:45:27;;;;;;;21.08;10.70;;;;;;;-0.85;54.29;99043.09;4920635;29;20036;-94
2024/01/14 08:47:52;;;;;;;24.60;11.82;;;;;;;-0.69;54.81;99047.13;4922091;29;20040;-93
2024/01/14 08:50:18;;;;;;;25.10;11.68;;;;;;;-0.43;54.73;99074.63;4920657;29;20023;-94
2024/01/14 08:52:44;;;;;;;28.00;10.77;;;;;;;-0.37;53.88;99057.09;4921668;29;20063;-94
2024/01/14 08:55:10;;;;;;;20.50;9.85;;;;;;;-0.25;53.75;99084.56;4921316;29;20027;-94
2024/01/14 08:57:35;;;;;;;16.55;8.80;;;;;;;-0.45;53.57;99069.53;4907095;29;20042;-94
2024/01/14 09:00:01;;;;;;;18.95;9.57;;;;;;;-0.41;53.38;99059.34;4924731;29;20039;-93
2024/01/14 09:02:26;;;;;;;17.00;9.30;;;;;;;-0.40;52.83;99050.38;4926695;29;20098;-94
2024/01/14 09:04:52;;;;;;;20.13;9.38;;;;;;;-0.20;52.58;99053.00;4924527;29;20031;-95
2024/01/14 09:07:17;;;;;;;16.20;10.05;;;;;;;-0.09;52.79;99041.78;4910001;29;20015;-95
2024/01/14 09:09:48;;;;;;;16.27;10.07;;;;;;;0.19;52.57;99061.88;4909287;29;20471;-94
2024/01/14 09:12:13;;;;;;;19.77;9.23;;;;;;;0.26;53.09;99051.28;4911045;29;20032;-94
2024/01/14 09:14:39;;;;;;;18.02;8.93;;;;;;;0.36;52.02;99047.16;4941388;29;20035;-94
2024/01/14 09:17:04;;;;;;;16.90;8.43;;;;;;;0.33;52.00;99025.56;4908634;29;20038;-95
2024/01/14 09:19:30;;;;;;;15.52;7.78;;;;;;;0.43;50.87;99031.22;4924638;29;20024;-93
2024/01/14 09:21:58;;;;;;;13.52;7.95;;;;;;;0.38;50.79;99005.38;4923398;29;20490;-94
2024/01/14 09:24:24;;;;;;;17.98;8.38;;;;;;;0.67;50.67;99035.00;4940439;29;20099;-96
2024/01/14 09:26:50;;;;;;;16.63;8.20;;;;;;;0.65;51.42;99017.69;4922103;29;20076;-94
2024/01/14 09:29:19;;;;;;;14.00;7.93;;;;;;;0.75;50.82;99021.50;4922172;29;20040;-95
2024/01/14 09:31:46;;;;;;;19.88;8.30;;;;;;;0.84;51.07;99016.75;4922157;29;20052;-94
2024/01/14 09:34:15;;;;;;;22.95;8.65;;;;;;;0.74;50.58;98997.84;4922816;29;20036;-95
2024/01/14 09:37:12;;;;;;;16.38;8.88;;;;;;;0.70;52.25;98980.75;4956018;29;20116;-94
2024/01/14 09:39:41;;;;;;;19.48;10.10;;;;;;;0.72;51.70;98966.25;4925770;29;20032;-96
2024/01/14 09:42:33;;;;;;;;;;;;;;;;;;;;;
2024/01/14 09:45:02;;;;;;;27.92;10.70;;;;;;;0.98;52.12;98977.72;4938037;29;20070;-96
2024/01/14 09:47:29;;;;;;;20.33;9.68;;;;;;;1.00;50.77;98965.06;4936044;29;20032;-96
2024/01/14 09:49:58;;;;;;;21.92;10.68;;;;;;;1.18;50.70;98980.19;4934923;29;20088;-96
2024/01/14 09:52:27;;;;;;;17.48;9.40;;;;;;;1.35;50.99;98980.44;4920418;29;20063;-96
2024/01/14 09:54:53;;;;;;;20.92;10.70;;;;;;;1.40;50.52;98959.41;4912555;29;20040;-96
2024/01/14 09:57:24;;;;;;;17.75;10.35;;;;;;;1.56;50.64;98952.72;4930641;29;20043;-95
2024/01/14 09:59:52;;;;;;;22.58;10.45;;;;;;;1.91;50.40;98955.59;4944374;29;20039;-96
2024/01/14 10:02:19;;;;;;;20.92;10.35;;;;;;;1.99;50.29;98938.53;4928434;29;20055;-96
2024/01/14 10:04:45;;;;;;;22.83;11.07;;;;;;;2.21;49.67;98937.03;4912040;29;20118;-96
2024/01/14 10:07:13;;;;;;;23.13;11.48;;;;;;;2.45;49.45;98946.94;4925516;29;20036;-96
2024/01/14 10:09:39;;;;;;;25.25;11.35;;;;;;;2.62;49.77;98934.63;4907992;29;20107;-96
2024/01/14 10:12:08;;;;;;;24.40;11.43;;;;;;;2.79;49.03;98938.25;4928920;29;20024;-96
2024/01/14 10:14:34;;;;;;;22.58;11.00;;;;;;;3.02;47.76;98939.31;4924417;29;20585;-96
2024/01/14 10:17:00;;;;;;;21.98;12.50;;;;;;;3.16;47.10;98930.09;4925261;29;20036;-95
2024/01/14 10:19:29;;;;;;;23.67;10.35;;;;;;;3.19;47.04;98912.84;4943872;29;20036;-96
2024/01/14 10:21:57;;;;;;;21.17;11.45;;;;;;;3.38;47.14;98906.38;4906324;29;20030;-96
2024/01/14 10:24:24;;;;;;;21.77;10.80;;;;;;;3.59;45.84;98914.78;4911400;29;20035;-96
2024/01/14 10:26:53;;;;;;;27.02;10.55;;;;;;;3.75;45.23;98910.59;4925411;29;20066;-95
2024/01/14 10:29:21;;;;;;;22.88;10.93;;;;;;;3.79;45.98;98891.22;4907834;29;20072;-96
2024/01/14 10:31:58;;;;;;;22.35;11.13;;;;;;;4.02;45.34;98905.53;4943596;29;20036;-96
2024/01/14 10:34:26;;;;;;;36.75;10.77;;;;;;;3.98;45.42;98869.75;4909801;29;20075;-96
2024/01/14 10:36:55;;;;;;;32.22;11.45;;;;;;;4.15;45.32;98888.44;4915016;29;20028;-96
2024/01/14 10:39:31;;;;;;;30.63;11.13;;;;;;;4.03;45.45;98873.31;4917993;29;20064;-96
2024/01/14 10:42:08;;;;;;;23.08;11.30;;;;;;;4.09;45.68;98870.75;4919478;29;20036;-96
2024/01/14 10:51:22;;;;;;;30.40;12.65;;;;;;;4.15;46.11;98878.63;4944144;29;20050;-96
2024/01/14 10:53:55;;;;;;;30.40;12.55;;;;;;;4.00;47.01;98851.69;4911745;29;20051;-96
2024/01/14 10:56:25;;;;;;;22.55;12.45;;;;;;;4.16;46.69;98872.22;4935177;29;20050;-96
2024/01/14 10:58:54;;;;;;;22.80;12.38;;;;;;;4.15;47.36;98869.78;4927344;29;20047;-96
2024/01/14 11:01:21;;;;;;;25.15;12.90;;;;;;;4.17;46.52;98862.38;4918319;29;20095;-96
2024/01/14 11:03:51;;;;;;;33.13;13.13;;;;;;;4.02;46.41;98829.06;4945786;29;20034;-96
2024/01/14 11:06:21;;;;;;;26.52;13.15;;;;;;;4.14;46.02;98836.22;4930814;29;20032;-96
2024/01/14 11:08:52;;;;;;;31.10;12.52;;;;;;;4.27;45.67;98851.91;4920092;29;20057;-95
2024/01/14 11:11:22;;;;;;;28.75;12.88;;;;;;;4.36;44.90;98852.34;4926586;29;20055;-96
2024/01/14 11:13:52;;;;;;;31.48;14.10;;;;;;;4.37;45.86;98867.25;4917611;29;20031;-96
2024/01/14 11:16:22;;;;;;;30.92;13.82;;;;;;;4.24;45.93;98839.88;4923095;29;20529;-96
2024/01/14 11:18:53;;;;;;;36.72;17.50;;;;;;;4.33;44.90;98831.47;4903094;29;20071;-94
2024/01/14 11:21:42;;;;;;;52.05;26.50;;;;;;;4.34;44.62;98833.09;4903326;29;20135;-93
2024/01/14 11:24:08;;;;;;;54.13;24.35;;;;;;;4.31;46.59;98833.56;4935607;29;20028;-94